Pagrindinis puslapis
METAR-TAF:

METAR-TAF

Oro uostai :

Pembrey, Velsas

platuma: 51-43N, ilguma: 004-22W, Aukštis: 3 m

Dabartinis oras

Ataskaita buvo paskelbta 45 minutes, ne 11:50 UTC
Vėjas 18 kt iš Pietų/Pietvakarių
Temperatūra 16°C
Drėgmė 94%
Slėgis 1020 hPa
Matomumas: 9000 m
dulksna,

METAR: EGOP 241150Z AUTO 21018KT 9000 DZ OVC007/// 16/15 Q1020

Laikas: 13:35 (12:35 UTC)


TAF: trūkstamas

Orai ataskaitas ir orų prognozės (METAR, TAF).

turimą stotys yra geltonos ir raudonos taškus žemėlapyje.

Perkelti pele per norėdami pamatyti stoties vardą.

Tada spustelėkite, norėdami matyti oro stebėjimo ir prognozės.

Norėdami pakeisti žemėlapį: spustelėkite ant žalios mygtukų su juodo kryžiaus žemyn,; žalią mygtuką su brūkšneliu, jei norite nutolinti; arba žalių rodyklių gretimoms žemėlapius.


METAR-TAF: